sensor_id;sensor_type;location;lat;lon;timestamp;pressure;altitude;pressure_sealevel;temperature;humidity
68169;BME280;54981;50.206;15.978;2023-08-07T00:00:32;97690.03;;;14.20;100.00
68169;BME280;54981;50.206;15.978;2023-08-07T00:03:03;97696.22;;;14.11;100.00
68169;BME280;54981;50.206;15.978;2023-08-07T00:05:33;97686.94;;;14.15;100.00
68169;BME280;54981;50.206;15.978;2023-08-07T00:08:03;97688.50;;;14.18;100.00
68169;BME280;54981;50.206;15.978;2023-08-07T00:10:34;97691.91;;;14.30;100.00
68169;BME280;54981;50.206;15.978;2023-08-07T00:13:04;97685.25;;;14.14;100.00
68169;BME280;54981;50.206;15.978;2023-08-07T00:15:37;97689.63;;;14.15;100.00
68169;BME280;54981;50.206;15.978;2023-08-07T00:18:08;97691.44;;;14.15;100.00
68169;BME280;54981;50.206;15.978;2023-08-07T00:20:38;97690.63;;;14.14;100.00
68169;BME280;54981;50.206;15.978;2023-08-07T00:23:08;97699.59;;;14.03;100.00
68169;BME280;54981;50.206;15.978;2023-08-07T00:25:39;97691.88;;;14.10;100.00
68169;BME280;54981;50.206;15.978;2023-08-07T00:28:11;97701.03;;;14.17;100.00
68169;BME280;54981;50.206;15.978;2023-08-07T00:30:42;97694.00;;;14.26;100.00
68169;BME280;54981;50.206;15.978;2023-08-07T00:33:12;97699.91;;;14.10;100.00
68169;BME280;54981;50.206;15.978;2023-08-07T00:35:43;97707.22;;;14.08;100.00
68169;BME280;54981;50.206;15.978;2023-08-07T00:38:14;97700.59;;;14.12;100.00
68169;BME280;54981;50.206;15.978;2023-08-07T00:40:44;97704.44;;;14.19;100.00
68169;BME280;54981;50.206;15.978;2023-08-07T00:43:14;97705.22;;;14.00;100.00
68169;BME280;54981;50.206;15.978;2023-08-07T00:45:46;97707.63;;;14.03;100.00
68169;BME280;54981;50.206;15.978;2023-08-07T00:48:17;97711.28;;;14.02;100.00
68169;BME280;54981;50.206;15.978;2023-08-07T00:50:48;97710.53;;;13.91;100.00
68169;BME280;54981;50.206;15.978;2023-08-07T00:53:19;97713.66;;;13.96;100.00
68169;BME280;54981;50.206;15.978;2023-08-07T00:55:49;97707.19;;;13.98;100.00
68169;BME280;54981;50.206;15.978;2023-08-07T00:58:20;97708.03;;;13.99;100.00
68169;BME280;54981;50.206;15.978;2023-08-07T01:00:50;97706.06;;;14.01;100.00
68169;BME280;54981;50.206;15.978;2023-08-07T01:03:20;97699.03;;;14.00;100.00
68169;BME280;54981;50.206;15.978;2023-08-07T01:05:51;97710.41;;;14.02;100.00
68169;BME280;54981;50.206;15.978;2023-08-07T01:08:22;97708.59;;;14.02;100.00
68169;BME280;54981;50.206;15.978;2023-08-07T01:13:54;97704.78;;;13.95;100.00
68169;BME280;54981;50.206;15.978;2023-08-07T01:16:52;97712.91;;;13.84;100.00
68169;BME280;54981;50.206;15.978;2023-08-07T01:19:28;97710.75;;;13.78;100.00
68169;BME280;54981;50.206;15.978;2023-08-07T01:24:37;97717.84;;;13.89;100.00
68169;BME280;54981;50.206;15.978;2023-08-07T01:30:27;97717.00;;;13.88;100.00
68169;BME280;54981;50.206;15.978;2023-08-07T01:33:07;97715.91;;;13.91;100.00
68169;BME280;54981;50.206;15.978;2023-08-07T01:35:42;97717.00;;;13.88;100.00
68169;BME280;54981;50.206;15.978;2023-08-07T01:38:13;97719.72;;;13.98;100.00
68169;BME280;54981;50.206;15.978;2023-08-07T01:40:44;97724.09;;;14.09;100.00
68169;BME280;54981;50.206;15.978;2023-08-07T01:43:16;97723.97;;;14.10;100.00
68169;BME280;54981;50.206;15.978;2023-08-07T01:45:49;97721.31;;;14.10;100.00
68169;BME280;54981;50.206;15.978;2023-08-07T01:48:19;97724.91;;;13.99;100.00
68169;BME280;54981;50.206;15.978;2023-08-07T01:50:49;97729.72;;;13.96;100.00
68169;BME280;54981;50.206;15.978;2023-08-07T01:53:20;97721.41;;;13.99;100.00
68169;BME280;54981;50.206;15.978;2023-08-07T01:55:50;97725.22;;;14.06;100.00
68169;BME280;54981;50.206;15.978;2023-08-07T01:58:20;97722.66;;;13.95;100.00
68169;BME280;54981;50.206;15.978;2023-08-07T02:00:51;97713.38;;;13.99;100.00
68169;BME280;54981;50.206;15.978;2023-08-07T02:03:21;97717.84;;;13.89;100.00
68169;BME280;54981;50.206;15.978;2023-08-07T02:05:52;97719.28;;;13.93;100.00
68169;BME280;54981;50.206;15.978;2023-08-07T02:08:22;97724.03;;;13.89;100.00
68169;BME280;54981;50.206;15.978;2023-08-07T02:10:52;97721.69;;;13.96;100.00
68169;BME280;54981;50.206;15.978;2023-08-07T02:13:23;97723.88;;;13.81;100.00
68169;BME280;54981;50.206;15.978;2023-08-07T02:15:53;97722.59;;;13.85;100.00
68169;BME280;54981;50.206;15.978;2023-08-07T02:18:23;97727.81;;;13.77;100.00
68169;BME280;54981;50.206;15.978;2023-08-07T02:20:54;97719.66;;;13.78;100.00
68169;BME280;54981;50.206;15.978;2023-08-07T02:23:24;97725.53;;;13.72;100.00
68169;BME280;54981;50.206;15.978;2023-08-07T02:25:54;97723.25;;;13.68;100.00
68169;BME280;54981;50.206;15.978;2023-08-07T02:28:25;97718.19;;;13.64;100.00
68169;BME280;54981;50.206;15.978;2023-08-07T02:30:55;97718.50;;;13.71;100.00
68169;BME280;54981;50.206;15.978;2023-08-07T02:33:25;97716.09;;;13.78;100.00
68169;BME280;54981;50.206;15.978;2023-08-07T02:35:56;97724.00;;;13.79;100.00
68169;BME280;54981;50.206;15.978;2023-08-07T02:38:27;97729.94;;;13.83;100.00
68169;BME280;54981;50.206;15.978;2023-08-07T02:40:57;97719.66;;;13.78;100.00
68169;BME280;54981;50.206;15.978;2023-08-07T02:43:27;97717.81;;;13.79;100.00
68169;BME280;54981;50.206;15.978;2023-08-07T02:45:58;97723.84;;;13.71;100.00
68169;BME280;54981;50.206;15.978;2023-08-07T02:48:29;97724.00;;;13.79;100.00
68169;BME280;54981;50.206;15.978;2023-08-07T02:50:59;97722.44;;;13.77;100.00
68169;BME280;54981;50.206;15.978;2023-08-07T02:53:29;97721.69;;;13.65;100.00
68169;BME280;54981;50.206;15.978;2023-08-07T02:56:00;97718.19;;;13.64;100.00
68169;BME280;54981;50.206;15.978;2023-08-07T02:58:30;97716.91;;;13.59;100.00
68169;BME280;54981;50.206;15.978;2023-08-07T03:01:04;97727.63;;;13.69;100.00
68169;BME280;54981;50.206;15.978;2023-08-07T03:03:38;97722.00;;;13.72;100.00
68169;BME280;54981;50.206;15.978;2023-08-07T03:06:08;97721.72;;;13.75;100.00
68169;BME280;54981;50.206;15.978;2023-08-07T03:08:38;97723.38;;;13.66;100.00
68169;BME280;54981;50.206;15.978;2023-08-07T03:11:09;97733.47;;;13.53;100.00
68169;BME280;54981;50.206;15.978;2023-08-07T03:13:39;97731.50;;;13.55;100.00
68169;BME280;54981;50.206;15.978;2023-08-07T03:16:09;97740.09;;;13.58;100.00
68169;BME280;54981;50.206;15.978;2023-08-07T03:18:40;97730.84;;;13.41;100.00
68169;BME280;54981;50.206;15.978;2023-08-07T03:21:10;97731.78;;;13.52;100.00
68169;BME280;54981;50.206;15.978;2023-08-07T03:23:41;97727.13;;;13.54;100.00
68169;BME280;54981;50.206;15.978;2023-08-07T03:26:12;97730.59;;;13.45;100.00
68169;BME280;54981;50.206;15.978;2023-08-07T03:28:43;97735.13;;;13.54;100.00
68169;BME280;54981;50.206;15.978;2023-08-07T03:31:16;97736.25;;;13.51;100.00
68169;BME280;54981;50.206;15.978;2023-08-07T03:33:47;97731.22;;;13.58;100.00
68169;BME280;54981;50.206;15.978;2023-08-07T03:36:17;97742.47;;;13.52;100.00
68169;BME280;54981;50.206;15.978;2023-08-07T03:38:47;97743.47;;;13.60;100.00
68169;BME280;54981;50.206;15.978;2023-08-07T03:41:18;97750.50;;;13.52;100.00
68169;BME280;54981;50.206;15.978;2023-08-07T03:43:49;97753.22;;;13.61;100.00
68169;BME280;54981;50.206;15.978;2023-08-07T03:46:19;97748.00;;;13.60;100.00
68169;BME280;54981;50.206;15.978;2023-08-07T03:48:49;97751.91;;;13.56;100.00
68169;BME280;54981;50.206;15.978;2023-08-07T03:51:20;97748.34;;;13.46;100.00
68169;BME280;54981;50.206;15.978;2023-08-07T03:53:50;97754.13;;;13.51;100.00
68169;BME280;54981;50.206;15.978;2023-08-07T03:56:21;97753.28;;;13.50;100.00
68169;BME280;54981;50.206;15.978;2023-08-07T03:58:51;97761.19;;;13.52;100.00
68169;BME280;54981;50.206;15.978;2023-08-07T04:01:22;97756.41;;;13.55;100.00
68169;BME280;54981;50.206;15.978;2023-08-07T04:03:52;97759.34;;;13.52;100.00
68169;BME280;54981;50.206;15.978;2023-08-07T04:06:22;97760.19;;;13.53;100.00
68169;BME280;54981;50.206;15.978;2023-08-07T04:08:53;97758.81;;;13.58;100.00
68169;BME280;54981;50.206;15.978;2023-08-07T04:11:23;97762.88;;;13.53;100.00
68169;BME280;54981;50.206;15.978;2023-08-07T04:13:53;97759.09;;;13.55;100.00
68169;BME280;54981;50.206;15.978;2023-08-07T04:16:24;97759.53;;;13.60;100.00
68169;BME280;54981;50.206;15.978;2023-08-07T04:18:54;97764.72;;;13.52;100.00
68169;BME280;54981;50.206;15.978;2023-08-07T04:21:25;97761.31;;;13.50;100.00
68169;BME280;54981;50.206;15.978;2023-08-07T04:23:55;97761.44;;;13.49;100.00
68169;BME280;54981;50.206;15.978;2023-08-07T04:26:26;97757.97;;;13.58;100.00
68169;BME280;54981;50.206;15.978;2023-08-07T04:28:57;97766.72;;;13.60;100.00
68169;BME280;54981;50.206;15.978;2023-08-07T04:31:27;97766.44;;;13.63;100.00
68169;BME280;54981;50.206;15.978;2023-08-07T04:33:58;97769.00;;;13.64;100.00
68169;BME280;54981;50.206;15.978;2023-08-07T04:36:28;97766.31;;;13.64;100.00
68169;BME280;54981;50.206;15.978;2023-08-07T04:38:58;97769.38;;;13.60;100.00
68169;BME280;54981;50.206;15.978;2023-08-07T04:41:29;97758.50;;;13.52;100.00
68169;BME280;54981;50.206;15.978;2023-08-07T04:43:59;97772.56;;;13.54;100.00
68169;BME280;54981;50.206;15.978;2023-08-07T04:46:30;97773.19;;;13.57;100.00
68169;BME280;54981;50.206;15.978;2023-08-07T04:49:00;97776.97;;;13.55;100.00
68169;BME280;54981;50.206;15.978;2023-08-07T04:51:31;97774.00;;;13.58;100.00
68169;BME280;54981;50.206;15.978;2023-08-07T04:54:01;97768.09;;;13.54;100.00
68169;BME280;54981;50.206;15.978;2023-08-07T04:56:31;97772.50;;;13.44;100.00
68169;BME280;54981;50.206;15.978;2023-08-07T04:59:02;97775.19;;;13.44;100.00
68169;BME280;54981;50.206;15.978;2023-08-07T05:01:33;97773.38;;;13.45;100.00
68169;BME280;54981;50.206;15.978;2023-08-07T05:04:03;97780.16;;;13.49;100.00
68169;BME280;54981;50.206;15.978;2023-08-07T05:06:35;97778.75;;;13.45;100.00
68169;BME280;54981;50.206;15.978;2023-08-07T05:09:05;97780.31;;;13.47;100.00
68169;BME280;54981;50.206;15.978;2023-08-07T05:11:36;97776.97;;;13.34;100.00
68169;BME280;54981;50.206;15.978;2023-08-07T05:14:07;97775.91;;;13.46;100.00
68169;BME280;54981;50.206;15.978;2023-08-07T05:16:37;97782.38;;;13.43;100.00
68169;BME280;54981;50.206;15.978;2023-08-07T05:19:08;97781.59;;;13.53;100.00
68169;BME280;54981;50.206;15.978;2023-08-07T05:21:38;97782.69;;;13.50;100.00
68169;BME280;54981;50.206;15.978;2023-08-07T05:24:08;97782.69;;;13.50;100.00
68169;BME280;54981;50.206;15.978;2023-08-07T05:26:39;97780.88;;;13.51;100.00
68169;BME280;54981;50.206;15.978;2023-08-07T05:29:09;97782.88;;;13.58;100.00
68169;BME280;54981;50.206;15.978;2023-08-07T05:31:40;97786.94;;;13.53;100.00
68169;BME280;54981;50.206;15.978;2023-08-07T05:34:10;97788.31;;;13.47;100.00
68169;BME280;54981;50.206;15.978;2023-08-07T05:36:40;97797.50;;;13.54;100.00
68169;BME280;54981;50.206;15.978;2023-08-07T05:39:11;97794.78;;;13.45;100.00
68169;BME280;54981;50.206;15.978;2023-08-07T05:41:42;97804.66;;;13.54;100.00
68169;BME280;54981;50.206;15.978;2023-08-07T05:44:12;97807.16;;;13.46;100.00
68169;BME280;54981;50.206;15.978;2023-08-07T05:46:43;97802.31;;;13.39;100.00
68169;BME280;54981;50.206;15.978;2023-08-07T05:49:13;97804.38;;;13.47;100.00
68169;BME280;54981;50.206;15.978;2023-08-07T05:51:43;97807.53;;;13.41;100.00
68169;BME280;54981;50.206;15.978;2023-08-07T05:54:14;97811.91;;;13.42;100.00
68169;BME280;54981;50.206;15.978;2023-08-07T05:56:44;97816.75;;;13.48;100.00
68169;BME280;54981;50.206;15.978;2023-08-07T05:59:14;97818.31;;;13.51;100.00
68169;BME280;54981;50.206;15.978;2023-08-07T06:01:45;97818.25;;;13.62;100.00
68169;BME280;54981;50.206;15.978;2023-08-07T06:04:15;97819.38;;;13.59;100.00
68169;BME280;54981;50.206;15.978;2023-08-07T06:06:46;97821.72;;;13.53;100.00
68169;BME280;54981;50.206;15.978;2023-08-07T06:09:16;97822.53;;;13.53;100.00
68169;BME280;54981;50.206;15.978;2023-08-07T06:11:48;97828.03;;;13.52;100.00
68169;BME280;54981;50.206;15.978;2023-08-07T06:14:18;97830.28;;;13.56;100.00
68169;BME280;54981;50.206;15.978;2023-08-07T06:16:48;97831.16;;;13.57;100.00
68169;BME280;54981;50.206;15.978;2023-08-07T06:19:19;97843.75;;;13.45;100.00
68169;BME280;54981;50.206;15.978;2023-08-07T06:21:50;97833.06;;;13.45;100.00
68169;BME280;54981;50.206;15.978;2023-08-07T06:24:21;97842.44;;;13.60;100.00
68169;BME280;54981;50.206;15.978;2023-08-07T06:26:51;97839.81;;;13.49;100.00
68169;BME280;54981;50.206;15.978;2023-08-07T06:29:21;97846.53;;;13.43;100.00
68169;BME280;54981;50.206;15.978;2023-08-07T06:31:52;97848.94;;;13.47;100.00
68169;BME280;54981;50.206;15.978;2023-08-07T06:34:22;97844.31;;;13.49;100.00
68169;BME280;54981;50.206;15.978;2023-08-07T06:36:53;97843.59;;;13.47;100.00
68169;BME280;54981;50.206;15.978;2023-08-07T06:39:23;97854.28;;;13.47;100.00
68169;BME280;54981;50.206;15.978;2023-08-07T06:41:53;97848.56;;;13.51;100.00
68169;BME280;54981;50.206;15.978;2023-08-07T06:44:24;97858.03;;;13.55;100.00
68169;BME280;54981;50.206;15.978;2023-08-07T06:46:54;97855.56;;;13.42;100.00
68169;BME280;54981;50.206;15.978;2023-08-07T06:49:24;97862.19;;;13.48;100.00
68169;BME280;54981;50.206;15.978;2023-08-07T06:51:55;97865.06;;;13.56;100.00
68169;BME280;54981;50.206;15.978;2023-08-07T06:54:25;97871.53;;;13.54;100.00
68169;BME280;54981;50.206;15.978;2023-08-07T06:56:56;97865.22;;;13.55;100.00
68169;BME280;54981;50.206;15.978;2023-08-07T06:59:26;97867.66;;;13.47;100.00
68169;BME280;54981;50.206;15.978;2023-08-07T07:01:56;97870.22;;;13.48;100.00
68169;BME280;54981;50.206;15.978;2023-08-07T07:04:27;97876.75;;;13.55;100.00
68169;BME280;54981;50.206;15.978;2023-08-07T07:06:58;97872.50;;;13.53;100.00
68169;BME280;54981;50.206;15.978;2023-08-07T07:09:28;97880.16;;;13.57;100.00
68169;BME280;54981;50.206;15.978;2023-08-07T07:11:59;97891.97;;;13.55;100.00
68169;BME280;54981;50.206;15.978;2023-08-07T07:14:29;97890.47;;;13.62;100.00
68169;BME280;54981;50.206;15.978;2023-08-07T07:17:00;97889.84;;;13.58;100.00
68169;BME280;54981;50.206;15.978;2023-08-07T07:19:30;97901.88;;;13.64;100.00
68169;BME280;54981;50.206;15.978;2023-08-07T07:22:01;97907.94;;;13.66;100.00
68169;BME280;54981;50.206;15.978;2023-08-07T07:24:31;97905.97;;;13.68;100.00
68169;BME280;54981;50.206;15.978;2023-08-07T07:27:01;97906.19;;;13.76;100.00
68169;BME280;54981;50.206;15.978;2023-08-07T07:29:33;97902.97;;;13.82;100.00
68169;BME280;54981;50.206;15.978;2023-08-07T07:32:03;97914.69;;;13.81;100.00
68169;BME280;54981;50.206;15.978;2023-08-07T07:34:34;97920.22;;;13.90;100.00
68169;BME280;54981;50.206;15.978;2023-08-07T07:37:04;97923.50;;;13.93;100.00
68169;BME280;54981;50.206;15.978;2023-08-07T07:39:35;97924.44;;;13.92;100.00
68169;BME280;54981;50.206;15.978;2023-08-07T07:42:06;97924.06;;;13.97;100.00
68169;BME280;54981;50.206;15.978;2023-08-07T07:44:37;97934.59;;;14.10;100.00
68169;BME280;54981;50.206;15.978;2023-08-07T07:47:08;97934.66;;;14.19;100.00
68169;BME280;54981;50.206;15.978;2023-08-07T07:49:39;97938.66;;;14.35;100.00
68169;BME280;54981;50.206;15.978;2023-08-07T07:52:09;97946.88;;;14.43;100.00
68169;BME280;54981;50.206;15.978;2023-08-07T07:54:40;97953.41;;;14.50;100.00
68169;BME280;54981;50.206;15.978;2023-08-07T07:57:10;97957.41;;;14.56;100.00
68169;BME280;54981;50.206;15.978;2023-08-07T07:59:40;97956.78;;;14.52;100.00
68169;BME280;54981;50.206;15.978;2023-08-07T08:02:11;97954.06;;;14.63;100.00
68169;BME280;54981;50.206;15.978;2023-08-07T08:04:41;97957.34;;;14.77;100.00
68169;BME280;54981;50.206;15.978;2023-08-07T08:07:12;97958.38;;;14.85;100.00
68169;BME280;54981;50.206;15.978;2023-08-07T08:09:42;97963.25;;;15.01;100.00
68169;BME280;54981;50.206;15.978;2023-08-07T08:12:13;97971.88;;;15.15;100.00
68169;BME280;54981;50.206;15.978;2023-08-07T08:14:43;97962.19;;;15.43;100.00
68169;BME280;54981;50.206;15.978;2023-08-07T08:17:13;97968.28;;;15.54;100.00
68169;BME280;54981;50.206;15.978;2023-08-07T08:19:44;97966.66;;;15.83;100.00
68169;BME280;54981;50.206;15.978;2023-08-07T08:22:14;97958.72;;;15.81;100.00
68169;BME280;54981;50.206;15.978;2023-08-07T08:24:45;97974.13;;;15.98;100.00
68169;BME280;54981;50.206;15.978;2023-08-07T08:27:15;97972.72;;;16.14;100.00
68169;BME280;54981;50.206;15.978;2023-08-07T08:29:47;97976.50;;;16.31;100.00
68169;BME280;54981;50.206;15.978;2023-08-07T08:32:17;97969.53;;;16.48;100.00
68169;BME280;54981;50.206;15.978;2023-08-07T08:34:48;97972.25;;;16.38;100.00
68169;BME280;54981;50.206;15.978;2023-08-07T08:37:20;97978.25;;;16.50;100.00
68169;BME280;54981;50.206;15.978;2023-08-07T08:39:50;97974.34;;;16.34;100.00
68169;BME280;54981;50.206;15.978;2023-08-07T08:42:20;97972.41;;;16.17;100.00
68169;BME280;54981;50.206;15.978;2023-08-07T08:44:52;97982.44;;;16.15;100.00
68169;BME280;54981;50.206;15.978;2023-08-07T08:47:25;97977.50;;;16.10;100.00
68169;BME280;54981;50.206;15.978;2023-08-07T08:50:22;97986.41;;;16.11;100.00
68169;BME280;54981;50.206;15.978;2023-08-07T08:52:55;97992.19;;;16.16;100.00
68169;BME280;54981;50.206;15.978;2023-08-07T08:55:26;97989.94;;;16.02;100.00
68169;BME280;54981;50.206;15.978;2023-08-07T08:57:57;97980.50;;;15.88;100.00
68169;BME280;54981;50.206;15.978;2023-08-07T09:00:30;97991.34;;;15.96;100.00
68169;BME280;54981;50.206;15.978;2023-08-07T09:03:02;97999.41;;;15.86;100.00
68169;BME280;54981;50.206;15.978;2023-08-07T09:05:33;98002.09;;;15.86;100.00
68169;BME280;54981;50.206;15.978;2023-08-07T09:08:05;98001.53;;;15.92;100.00
68169;BME280;54981;50.206;15.978;2023-08-07T09:10:36;97997.31;;;16.09;100.00
68169;BME280;54981;50.206;15.978;2023-08-07T09:13:11;98003.06;;;16.24;100.00
68169;BME280;54981;50.206;15.978;2023-08-07T09:15:44;98009.38;;;16.43;100.00
68169;BME280;54981;50.206;15.978;2023-08-07T09:18:20;98009.28;;;16.34;100.00
68169;BME280;54981;50.206;15.978;2023-08-07T09:20:51;98012.25;;;16.31;100.00
68169;BME280;54981;50.206;15.978;2023-08-07T09:23:22;98018.06;;;16.17;100.00
68169;BME280;54981;50.206;15.978;2023-08-07T09:26:01;98023.03;;;16.12;100.00
68169;BME280;54981;50.206;15.978;2023-08-07T09:28:32;98028.09;;;16.15;100.00
68169;BME280;54981;50.206;15.978;2023-08-07T09:31:06;98021.28;;;16.21;100.00
68169;BME280;54981;50.206;15.978;2023-08-07T09:33:38;98019.34;;;16.13;100.00
68169;BME280;54981;50.206;15.978;2023-08-07T09:36:09;98014.81;;;16.13;100.00
68169;BME280;54981;50.206;15.978;2023-08-07T09:38:39;98019.19;;;16.14;100.00
68169;BME280;54981;50.206;15.978;2023-08-07T09:41:10;98021.28;;;16.21;100.00
68169;BME280;54981;50.206;15.978;2023-08-07T09:43:40;98022.41;;;16.37;100.00
68169;BME280;54981;50.206;15.978;2023-08-07T09:46:11;98015.88;;;16.50;100.00
68169;BME280;54981;50.206;15.978;2023-08-07T09:48:42;98026.00;;;16.75;100.00
68169;BME280;54981;50.206;15.978;2023-08-07T09:51:13;98018.94;;;16.94;100.00
68169;BME280;54981;50.206;15.978;2023-08-07T09:53:43;98029.06;;;17.00;100.00
68169;BME280;54981;50.206;15.978;2023-08-07T09:56:14;98018.66;;;16.77;100.00
68169;BME280;54981;50.206;15.978;2023-08-07T09:58:47;98022.91;;;16.80;100.00
68169;BME280;54981;50.206;15.978;2023-08-07T10:01:19;98035.09;;;16.74;100.00
68169;BME280;54981;50.206;15.978;2023-08-07T10:03:49;98035.09;;;16.84;100.00
68169;BME280;54981;50.206;15.978;2023-08-07T10:06:20;98033.66;;;16.90;100.00
68169;BME280;54981;50.206;15.978;2023-08-07T10:08:51;98035.84;;;17.04;100.00
68169;BME280;54981;50.206;15.978;2023-08-07T10:11:22;98031.81;;;17.28;100.00
68169;BME280;54981;50.206;15.978;2023-08-07T10:13:53;98037.41;;;17.62;100.00
68169;BME280;54981;50.206;15.978;2023-08-07T10:16:26;98026.41;;;17.83;100.00
68169;BME280;54981;50.206;15.978;2023-08-07T10:18:58;98020.31;;;17.81;100.00
68169;BME280;54981;50.206;15.978;2023-08-07T10:21:28;98027.56;;;17.80;100.00
68169;BME280;54981;50.206;15.978;2023-08-07T10:24:00;98029.47;;;17.88;100.00
68169;BME280;54981;50.206;15.978;2023-08-07T10:26:33;98034.53;;;17.91;100.00
68169;BME280;54981;50.206;15.978;2023-08-07T10:29:08;98037.16;;;17.83;100.00
68169;BME280;54981;50.206;15.978;2023-08-07T10:31:40;98037.91;;;17.75;100.00
68169;BME280;54981;50.206;15.978;2023-08-07T10:34:13;98035.63;;;17.98;100.00
68169;BME280;54981;50.206;15.978;2023-08-07T10:36:44;98040.19;;;17.98;100.00
68169;BME280;54981;50.206;15.978;2023-08-07T10:39:15;98049.34;;;17.77;100.00
68169;BME280;54981;50.206;15.978;2023-08-07T10:41:47;98047.84;;;17.47;100.00
68169;BME280;54981;50.206;15.978;2023-08-07T10:44:25;98056.41;;;17.33;100.00
68169;BME280;54981;50.206;15.978;2023-08-07T10:46:57;98057.25;;;17.61;100.00
68169;BME280;54981;50.206;15.978;2023-08-07T10:54:45;98084.63;;;17.19;100.00
68169;BME280;54981;50.206;15.978;2023-08-07T10:57:18;98080.38;;;16.69;100.00
68169;BME280;54981;50.206;15.978;2023-08-07T11:02:30;98088.31;;;16.22;100.00
68169;BME280;54981;50.206;15.978;2023-08-07T11:05:01;98100.59;;;15.95;100.00
68169;BME280;54981;50.206;15.978;2023-08-07T11:07:32;98101.84;;;15.91;100.00
68169;BME280;54981;50.206;15.978;2023-08-07T11:10:02;98101.31;;;15.97;100.00
68169;BME280;54981;50.206;15.978;2023-08-07T11:12:33;98097.06;;;15.95;100.00
68169;BME280;54981;50.206;15.978;2023-08-07T11:15:05;98101.31;;;16.17;100.00
68169;BME280;54981;50.206;15.978;2023-08-07T11:17:39;98095.13;;;16.36;100.00
68169;BME280;54981;50.206;15.978;2023-08-07T11:20:11;98093.63;;;16.90;100.00
68169;BME280;54981;50.206;15.978;2023-08-07T11:22:42;98089.63;;;17.14;100.00
68169;BME280;54981;50.206;15.978;2023-08-07T11:25:13;98087.25;;;17.38;100.00
68169;BME280;54981;50.206;15.978;2023-08-07T11:27:45;98079.25;;;17.56;100.00
68169;BME280;54981;50.206;15.978;2023-08-07T11:30:15;98079.63;;;17.89;100.00
68169;BME280;54981;50.206;15.978;2023-08-07T11:32:46;98073.66;;;18.31;100.00
68169;BME280;54981;50.206;15.978;2023-08-07T11:35:16;98073.81;;;18.47;100.00
68169;BME280;54981;50.206;15.978;2023-08-07T11:37:47;98076.09;;;18.42;100.00
68169;BME280;54981;50.206;15.978;2023-08-07T11:40:18;98079.81;;;18.41;100.00
68169;BME280;54981;50.206;15.978;2023-08-07T11:42:48;98076.25;;;18.23;100.00
68169;BME280;54981;50.206;15.978;2023-08-07T11:45:18;98078.56;;;18.18;100.00
68169;BME280;54981;50.206;15.978;2023-08-07T11:47:49;98082.44;;;18.33;100.00
68169;BME280;54981;50.206;15.978;2023-08-07T11:50:19;98073.03;;;18.37;100.00
68169;BME280;54981;50.206;15.978;2023-08-07T11:52:51;98067.19;;;18.06;100.00
68169;BME280;54981;50.206;15.978;2023-08-07T11:55:23;98072.44;;;18.07;100.00
68169;BME280;54981;50.206;15.978;2023-08-07T11:57:54;98074.06;;;17.73;100.00
68169;BME280;54981;50.206;15.978;2023-08-07T12:00:28;98082.13;;;17.45;100.00
68169;BME280;54981;50.206;15.978;2023-08-07T12:02:59;98132.13;;;17.10;100.00
68169;BME280;54981;50.206;15.978;2023-08-07T12:05:38;98148.75;;;15.87;100.00
68169;BME280;54981;50.206;15.978;2023-08-07T12:08:09;98140.31;;;15.61;100.00
68169;BME280;54981;50.206;15.978;2023-08-07T12:10:40;98132.75;;;15.45;100.00
68169;BME280;54981;50.206;15.978;2023-08-07T12:13:12;98121.59;;;15.40;100.00
68169;BME280;54981;50.206;15.978;2023-08-07T12:15:42;98125.56;;;15.46;100.00
68169;BME280;54981;50.206;15.978;2023-08-07T12:18:13;98129.00;;;15.58;100.00
68169;BME280;54981;50.206;15.978;2023-08-07T12:20:45;98130.94;;;15.86;100.00
68169;BME280;54981;50.206;15.978;2023-08-07T12:23:16;98125.09;;;16.41;100.00
68169;BME280;54981;50.206;15.978;2023-08-07T12:25:47;98129.88;;;16.96;100.00
68169;BME280;54981;50.206;15.978;2023-08-07T12:28:18;98119.56;;;17.94;100.00
68169;BME280;54981;50.206;15.978;2023-08-07T12:30:50;98103.75;;;18.62;100.00
68169;BME280;54981;50.206;15.978;2023-08-07T12:33:21;98103.94;;;18.43;100.00
68169;BME280;54981;50.206;15.978;2023-08-07T12:35:52;98096.94;;;18.94;100.00
68169;BME280;54981;50.206;15.978;2023-08-07T12:38:23;98095.03;;;19.12;100.00
68169;BME280;54981;50.206;15.978;2023-08-07T12:40:54;98092.66;;;18.83;100.00
68169;BME280;54981;50.206;15.978;2023-08-07T12:43:25;98100.53;;;18.77;100.00
68169;BME280;54981;50.206;15.978;2023-08-07T12:45:55;98105.53;;;18.98;100.00
68169;BME280;54981;50.206;15.978;2023-08-07T12:48:26;98097.00;;;18.76;100.00
68169;BME280;54981;50.206;15.978;2023-08-07T12:50:58;98103.03;;;18.78;100.00
68169;BME280;54981;50.206;15.978;2023-08-07T12:53:28;98109.41;;;18.95;100.00
68169;BME280;54981;50.206;15.978;2023-08-07T12:55:59;98096.25;;;19.18;100.00
68169;BME280;54981;50.206;15.978;2023-08-07T12:58:29;98097.88;;;19.11;100.00
68169;BME280;54981;50.206;15.978;2023-08-07T13:01:00;98100.41;;;19.39;100.00
68169;BME280;54981;50.206;15.978;2023-08-07T13:03:30;98111.72;;;19.08;100.00
68169;BME280;54981;50.206;15.978;2023-08-07T13:06:00;98111.38;;;18.67;100.00
68169;BME280;54981;50.206;15.978;2023-08-07T13:08:31;98115.88;;;18.40;100.00
68169;BME280;54981;50.206;15.978;2023-08-07T13:11:03;98126.47;;;18.24;100.00
68169;BME280;54981;50.206;15.978;2023-08-07T13:13:34;98123.78;;;18.96;100.00
68169;BME280;54981;50.206;15.978;2023-08-07T13:16:04;98116.16;;;19.77;100.00